Hannover, Germany

12:06 PM CEST on July 25, 2016 (GMT +0200)
Garten im Dorf | | Change Station

Elev 180 ft 52.45 °N, 9.65 °E | Updated 29 seconds ago

Mostly Cloudy
Mostly Cloudy
80.6 °F
Feels Like 79 °F
N
0.2
Wind Variable Wind from SW
Gusts 2.5 mph

Today
High -- | Low -- °F
--% Chance of Precip.
Yesterday
High -- | Low -- °F
Precip. -- in
Pressure 30.04 in
Visibility 6.2 miles
Clouds Few 3500 ft
Mostly Cloudy 27000 ft
Heat Index 79 °F
Dew Point 36 °F
Humidity 20%
Rainfall 0.00 in
Snow Depth Not available.
5:30 AM 9:23 PM
Waning Gibbous, 67% visible
METAR EDDV 250950Z 32005KT 270V360 9999 FEW035 BKN270 26/18 Q1017 NOSIG
Pressure 30.04 in
Visibility 6.2 miles
Clouds Few 3500 ft
Mostly Cloudy 27000 ft
Heat Index 79 °F
Dew Point 36 °F
Humidity 20%
Rainfall 0.00 in
Snow Depth Not available.
5:30 AM 9:23 PM
Waning Gibbous, 67% visible
METAR EDDV 250950Z 32005KT 270V360 9999 FEW035 BKN270 26/18 Q1017 NOSIG

10-Day Weather Forecast

×

Almanac

Astronomy

Jul. 25, 2016 Rise Set
Actual Time
Civil Twilight
Nautical Twilight
Astronomical Twilight
Moon
Length of Visible Light
Length of Day
Tomorrow will be .
, % of the Moon is Illuminated

Today's Extremes

Country Highs Country Lows

Community

WunderPhotos

Upload Photos

1,927,289 photos uploaded!

WunderBlog® & News

Nearby

Air Quality

  Air Quality AQ Index Pollutant
Not available.

Snow Depth

Station Depth Elevation

Earthquake Activity

City Distance Mag. Time & Date
Minimum magnitude displayed is 2.5.

Coastal Water Temperatures

Place Temperature

Stations

Nearby Weather Stations

Station Location Temp. Windchill Dew Point Humidity Wind Precip. Elev Updated Type